OPLA/LHE METAR and TAF weather

Enter ICAO airport designator
Station Type Date Time Source
OPLA METAR 2020/01/26 18:55 UTC NOAA

OPLA 261855Z 00000KT 4000 FU NSC 13/07 Q1014 NOSIG RMK QFE988 RMK A29.93


Station Type Date Time Source
OPLA Decoded METAR 2020/01/26 18:55 UTC NOAA

Lahore Airport, Pakistan (OPLA) 31-31N 074-24E 217M
Jan 26, 2020 - 01:55 PM EST / 2020.01.26 1855 UTC
Wind: Calm:0
Visibility: 2 mile(s):0
Weather: smoke
Temperature: 55 F (13 C)
Dew Point: 44 F (7 C)
Relative Humidity: 66%
Pressure (altimeter): 29.94 in. Hg (1014 hPa)
ob: OPLA 261855Z 00000KT 4000 FU NSC 13/07 Q1014 NOSIG RMK QFE988 RMK A29.93
cycle: 19

Station Type Date Time Source
OPLA TAF 2020/01/26 18:03 UTC NOAA

TAF TAF OPLA 261545Z 2618/2724 31004KT 4000 FU NSC TX20/2710Z TN06/2701Z
BECMG 2702/2706 00000KT 1200 BR
TEMPO 2713/2718 32020G30KT 1500 TSGRRA FEW030CB SCT040 BKN100

Example: see airport list